SVA18B OEDF-OPKC
Flight info
| Callsign | SVA18B |
|---|---|
| Flight time | 2h 8m |
| Altitude | 35000 |
| Route | ROTEL N572 DAVRI P559 AMBOV Q322 LOVEM Q572 SERSA P307 TONVO A777 NADSO B524 ALPOR G216 LAKIV |
| Aircraft | B77W/H-SDE1E2E3FGHIJ2J3J4J5M1RWXY/LB1D1 |
Departure
| Time | 2026-05-01 08:39 |
|---|---|
| Airport | King Fahd International Airport (OEDF) |
Arrival
| Time | 2026-05-01 10:47 |
|---|---|
| Airport | Jinnah International Airport (OPKC) |
| Time | Latitude | Longitude | Altitude | Speed | Heading |
|---|---|---|---|---|---|
| 2026-05-01 08:30 | 26.46940 | 49.79448 | 94 ft | 0 kts | 62° |
| 2026-05-01 08:33 | 26.46937 | 49.79443 | 93 ft | 2 kts | 62° |
| 2026-05-01 08:33 | 26.46930 | 49.79428 | 92 ft | 2 kts | 63° |
| 2026-05-01 08:33 | 26.46923 | 49.79410 | 92 ft | 3 kts | 83° |
| 2026-05-01 08:33 | 26.46923 | 49.79395 | 91 ft | 3 kts | 114° |
| 2026-05-01 08:34 | 26.46929 | 49.79383 | 92 ft | 3 kts | 146° |
| 2026-05-01 08:34 | 26.46946 | 49.79373 | 93 ft | 3 kts | 156° |
| 2026-05-01 08:34 | 26.46957 | 49.79368 | 93 ft | 2 kts | 155° |
| 2026-05-01 08:34 | 26.46963 | 49.79365 | 90 ft | 0 kts | 153° |
| 2026-05-01 08:35 | 26.46962 | 49.79365 | 90 ft | 3 kts | 154° |
| 2026-05-01 08:35 | 26.46857 | 49.79415 | 90 ft | 24 kts | 163° |
| 2026-05-01 08:36 | 26.46697 | 49.79465 | 90 ft | 24 kts | 165° |
| 2026-05-01 08:36 | 26.46533 | 49.79492 | 91 ft | 24 kts | 175° |
| 2026-05-01 08:36 | 26.46368 | 49.79507 | 94 ft | 24 kts | 175° |
| 2026-05-01 08:36 | 26.46201 | 49.79524 | 91 ft | 26 kts | 175° |
| 2026-05-01 08:37 | 26.46025 | 49.79563 | 94 ft | 26 kts | 165° |
| 2026-05-01 08:37 | 26.45921 | 49.79453 | 91 ft | 23 kts | 253° |
| 2026-05-01 08:37 | 26.45808 | 49.79407 | 93 ft | 24 kts | 166° |
| 2026-05-01 08:37 | 26.45633 | 49.79424 | 91 ft | 23 kts | 215° |
| 2026-05-01 08:38 | 26.45572 | 49.79257 | 94 ft | 24 kts | 256° |
| 2026-05-01 08:38 | 26.45663 | 49.79127 | 94 ft | 28 kts | 338° |
| 2026-05-01 08:38 | 26.46083 | 49.78994 | 93 ft | 117 kts | 344° |
| 2026-05-01 08:38 | 26.47240 | 49.78638 | 162 ft | 219 kts | 346° |
| 2026-05-01 08:39 | 26.48699 | 49.78142 | 1945 ft | 207 kts | 346° |
| 2026-05-01 08:39 | 26.50114 | 49.78020 | 3429 ft | 208 kts | 18° |
| 2026-05-01 08:39 | 26.51366 | 49.79004 | 4347 ft | 249 kts | 52° |
| 2026-05-01 08:39 | 26.51920 | 49.80904 | 5637 ft | 273 kts | 85° |
| 2026-05-01 08:40 | 26.50370 | 49.84824 | 6957 ft | 291 kts | 118° |
| 2026-05-01 08:40 | 26.49861 | 49.86984 | 6973 ft | 291 kts | 85° |
| 2026-05-01 08:40 | 26.50440 | 49.89119 | 6994 ft | 288 kts | 59° |
| 2026-05-01 08:41 | 26.51493 | 49.91038 | 6990 ft | 290 kts | 56° |
| 2026-05-01 08:41 | 26.52543 | 49.92919 | 7017 ft | 287 kts | 58° |
| 2026-05-01 08:41 | 26.53509 | 49.94875 | 6994 ft | 286 kts | 61° |
| 2026-05-01 08:41 | 26.54371 | 49.96881 | 7014 ft | 285 kts | 64° |
| 2026-05-01 08:42 | 26.55158 | 49.98915 | 6996 ft | 285 kts | 66° |
| 2026-05-01 08:42 | 26.55901 | 50.00981 | 6993 ft | 288 kts | 67° |
| 2026-05-01 08:42 | 26.56617 | 50.03084 | 6974 ft | 290 kts | 68° |
| 2026-05-01 08:42 | 26.57316 | 50.05198 | 6990 ft | 289 kts | 68° |
| 2026-05-01 08:43 | 26.58003 | 50.07318 | 6986 ft | 289 kts | 69° |
| 2026-05-01 08:43 | 26.58674 | 50.09408 | 6975 ft | 290 kts | 69° |
| 2026-05-01 08:43 | 26.59336 | 50.11516 | 6979 ft | 286 kts | 69° |
| 2026-05-01 08:43 | 26.59996 | 50.13610 | 6981 ft | 286 kts | 69° |
| 2026-05-01 08:44 | 26.60665 | 50.15711 | 6987 ft | 286 kts | 69° |
| 2026-05-01 08:44 | 26.61307 | 50.17822 | 6990 ft | 287 kts | 69° |
| 2026-05-01 08:44 | 26.61951 | 50.19938 | 7063 ft | 286 kts | 70° |
| 2026-05-01 08:44 | 26.62604 | 50.22046 | 7849 ft | 290 kts | 69° |
| 2026-05-01 08:45 | 26.63291 | 50.24200 | 8663 ft | 299 kts | 69° |
| 2026-05-01 08:45 | 26.63996 | 50.26419 | 9449 ft | 307 kts | 69° |
| 2026-05-01 08:45 | 26.64698 | 50.28679 | 10184 ft | 317 kts | 70° |
| 2026-05-01 08:45 | 26.65449 | 50.31094 | 10584 ft | 342 kts | 70° |
| 2026-05-01 08:46 | 26.66271 | 50.33719 | 10795 ft | 371 kts | 70° |
| 2026-05-01 08:46 | 26.67159 | 50.36536 | 11135 ft | 394 kts | 71° |
| 2026-05-01 08:46 | 26.67987 | 50.39497 | 11710 ft | 405 kts | 73° |
| 2026-05-01 08:46 | 26.68774 | 50.42564 | 12420 ft | 416 kts | 75° |
| 2026-05-01 08:47 | 26.69564 | 50.45688 | 13389 ft | 419 kts | 74° |
| 2026-05-01 08:47 | 26.70378 | 50.48837 | 14330 ft | 423 kts | 73° |
| 2026-05-01 08:47 | 26.71207 | 50.51976 | 15214 ft | 428 kts | 74° |
| 2026-05-01 08:47 | 26.72054 | 50.55199 | 16130 ft | 434 kts | 73° |
| 2026-05-01 08:48 | 26.72913 | 50.58447 | 17046 ft | 437 kts | 73° |
| 2026-05-01 08:48 | 26.73787 | 50.61726 | 17894 ft | 442 kts | 73° |
| 2026-05-01 08:48 | 26.74688 | 50.65047 | 18607 ft | 448 kts | 73° |
| 2026-05-01 08:48 | 26.75569 | 50.68425 | 19313 ft | 455 kts | 74° |
| 2026-05-01 08:49 | 26.76453 | 50.71843 | 20089 ft | 459 kts | 73° |
| 2026-05-01 08:49 | 26.77334 | 50.75253 | 20832 ft | 465 kts | 74° |
| 2026-05-01 08:49 | 26.78237 | 50.78792 | 21558 ft | 469 kts | 75° |
| 2026-05-01 08:49 | 26.79135 | 50.82330 | 22154 ft | 476 kts | 73° |
| 2026-05-01 08:50 | 26.80099 | 50.85907 | 22781 ft | 482 kts | 73° |
| 2026-05-01 08:50 | 26.81043 | 50.89476 | 23450 ft | 486 kts | 74° |
| 2026-05-01 08:50 | 26.81723 | 50.93179 | 24001 ft | 488 kts | 86° |
| 2026-05-01 08:50 | 26.81676 | 50.96978 | 24512 ft | 491 kts | 99° |
| 2026-05-01 08:51 | 26.80984 | 51.00729 | 24959 ft | 494 kts | 111° |
| 2026-05-01 08:51 | 26.79676 | 51.04289 | 25410 ft | 496 kts | 119° |
| 2026-05-01 08:51 | 26.78197 | 51.07807 | 25876 ft | 502 kts | 119° |
| 2026-05-01 08:51 | 26.76809 | 51.11432 | 26313 ft | 510 kts | 114° |
| 2026-05-01 08:52 | 26.75627 | 51.15204 | 26736 ft | 517 kts | 112° |
| 2026-05-01 08:52 | 26.74850 | 51.17726 | 27040 ft | 519 kts | 113° |
| 2026-05-01 08:52 | 26.73643 | 51.21561 | 27442 ft | 525 kts | 113° |
| 2026-05-01 08:52 | 26.72000 | 51.26692 | 27958 ft | 533 kts | 114° |
| 2026-05-01 08:53 | 26.70739 | 51.30609 | 28352 ft | 538 kts | 114° |
| 2026-05-01 08:53 | 26.69878 | 51.33280 | 28599 ft | 541 kts | 114° |
| 2026-05-01 08:53 | 26.68597 | 51.37260 | 28952 ft | 546 kts | 114° |
| 2026-05-01 08:53 | 26.67317 | 51.41230 | 29277 ft | 551 kts | 114° |
| 2026-05-01 08:54 | 26.66016 | 51.45275 | 29559 ft | 555 kts | 114° |
| 2026-05-01 08:54 | 26.64702 | 51.49356 | 29871 ft | 560 kts | 114° |
| 2026-05-01 08:54 | 26.63381 | 51.53470 | 30240 ft | 563 kts | 114° |
| 2026-05-01 08:54 | 26.62062 | 51.57591 | 30730 ft | 561 kts | 114° |
| 2026-05-01 08:55 | 26.60748 | 51.61683 | 31393 ft | 556 kts | 114° |
| 2026-05-01 08:55 | 26.59440 | 51.65735 | 32047 ft | 551 kts | 115° |
| 2026-05-01 08:55 | 26.58138 | 51.69754 | 32607 ft | 547 kts | 115° |
| 2026-05-01 08:55 | 26.56865 | 51.73707 | 33041 ft | 547 kts | 115° |
| 2026-05-01 08:56 | 26.55561 | 51.77708 | 33501 ft | 546 kts | 116° |
| 2026-05-01 08:56 | 26.54274 | 51.81696 | 33988 ft | 543 kts | 116° |
| 2026-05-01 08:56 | 26.52989 | 51.85654 | 34456 ft | 542 kts | 116° |
| 2026-05-01 08:56 | 26.51713 | 51.89605 | 34930 ft | 539 kts | 116° |
| 2026-05-01 08:57 | 26.49089 | 51.97483 | 34972 ft | 541 kts | 116° |
| 2026-05-01 08:57 | 26.46479 | 52.05275 | 34949 ft | 537 kts | 116° |
| 2026-05-01 08:58 | 26.43894 | 52.13105 | 34920 ft | 535 kts | 116° |
| 2026-05-01 08:58 | 26.41263 | 52.20859 | 34923 ft | 534 kts | 116° |
| 2026-05-01 08:59 | 26.38648 | 52.28631 | 34912 ft | 534 kts | 116° |
| 2026-05-01 08:59 | 26.36047 | 52.36421 | 34915 ft | 536 kts | 116° |
| 2026-05-01 09:00 | 26.33279 | 52.44075 | 34914 ft | 532 kts | 120° |
| 2026-05-01 09:00 | 26.30303 | 52.51635 | 34962 ft | 533 kts | 119° |
| 2026-05-01 09:01 | 26.27408 | 52.59288 | 34925 ft | 535 kts | 119° |
| 2026-05-01 09:01 | 26.24459 | 52.66917 | 34953 ft | 536 kts | 119° |
| 2026-05-01 09:02 | 26.21542 | 52.74503 | 34930 ft | 537 kts | 119° |
| 2026-05-01 09:02 | 26.18576 | 52.82134 | 34938 ft | 535 kts | 119° |
| 2026-05-01 09:03 | 26.15659 | 52.89774 | 34921 ft | 535 kts | 118° |
| 2026-05-01 09:03 | 26.12730 | 52.97380 | 34928 ft | 534 kts | 119° |
| 2026-05-01 09:04 | 26.09807 | 53.05003 | 34909 ft | 535 kts | 118° |
| 2026-05-01 09:04 | 26.06986 | 53.12663 | 34946 ft | 534 kts | 117° |
| 2026-05-01 09:05 | 26.04211 | 53.20275 | 34934 ft | 533 kts | 118° |
| 2026-05-01 09:05 | 26.01402 | 53.27922 | 34952 ft | 533 kts | 117° |
| 2026-05-01 09:06 | 25.98638 | 53.35536 | 34917 ft | 533 kts | 117° |
| 2026-05-01 09:06 | 25.95814 | 53.43118 | 34905 ft | 529 kts | 118° |
| 2026-05-01 09:07 | 25.92974 | 53.50635 | 34922 ft | 528 kts | 116° |
| 2026-05-01 09:07 | 25.90377 | 53.58305 | 34931 ft | 529 kts | 115° |
| 2026-05-01 09:08 | 25.87780 | 53.65946 | 34924 ft | 533 kts | 115° |
| 2026-05-01 09:08 | 25.85162 | 53.73655 | 34919 ft | 533 kts | 116° |
| 2026-05-01 09:09 | 25.82445 | 53.81331 | 34911 ft | 535 kts | 117° |
| 2026-05-01 09:09 | 25.79725 | 53.89055 | 34911 ft | 537 kts | 116° |
| 2026-05-01 09:10 | 25.77040 | 53.96782 | 34913 ft | 537 kts | 116° |
| 2026-05-01 09:10 | 25.74399 | 54.04493 | 34898 ft | 537 kts | 115° |
| 2026-05-01 09:11 | 25.71985 | 54.12366 | 34885 ft | 539 kts | 113° |
| 2026-05-01 09:11 | 25.69627 | 54.20233 | 34887 ft | 536 kts | 114° |
| 2026-05-01 09:12 | 25.67226 | 54.28057 | 34892 ft | 533 kts | 114° |
| 2026-05-01 09:12 | 25.64809 | 54.35803 | 34851 ft | 532 kts | 114° |
| 2026-05-01 09:13 | 25.62459 | 54.43542 | 34872 ft | 533 kts | 113° |
| 2026-05-01 09:13 | 25.60112 | 54.51320 | 34873 ft | 532 kts | 114° |
| 2026-05-01 09:14 | 25.57678 | 54.59067 | 34852 ft | 532 kts | 114° |
| 2026-05-01 09:14 | 25.55195 | 54.66809 | 34850 ft | 533 kts | 114° |
| 2026-05-01 09:15 | 25.52688 | 54.74528 | 34868 ft | 533 kts | 114° |
| 2026-05-01 09:15 | 25.50713 | 54.82419 | 34848 ft | 540 kts | 103° |
| 2026-05-01 09:16 | 25.49584 | 54.90643 | 34858 ft | 540 kts | 102° |
| 2026-05-01 09:17 | 25.47821 | 55.02940 | 34867 ft | 537 kts | 103° |
| 2026-05-01 09:17 | 25.46010 | 55.15115 | 34859 ft | 535 kts | 102° |
| 2026-05-01 09:18 | 25.43500 | 55.27047 | 34856 ft | 527 kts | 114° |
| 2026-05-01 09:19 | 25.38956 | 55.38002 | 34875 ft | 524 kts | 120° |
| 2026-05-01 09:20 | 25.34269 | 55.48940 | 34856 ft | 525 kts | 119° |
| 2026-05-01 09:21 | 25.28114 | 55.63614 | 34856 ft | 527 kts | 117° |
| 2026-05-01 09:21 | 25.25344 | 55.75454 | 34869 ft | 535 kts | 98° |
| 2026-05-01 09:22 | 25.23729 | 55.91805 | 34849 ft | 537 kts | 99° |
| 2026-05-01 09:23 | 25.22281 | 56.04071 | 34820 ft | 537 kts | 99° |
| 2026-05-01 09:24 | 25.20313 | 56.16171 | 34846 ft | 529 kts | 111° |
| 2026-05-01 09:25 | 25.15355 | 56.31349 | 34843 ft | 526 kts | 113° |
| 2026-05-01 09:26 | 25.11685 | 56.42720 | 34868 ft | 524 kts | 112° |
| 2026-05-01 09:26 | 25.08136 | 56.54144 | 34834 ft | 526 kts | 109° |
| 2026-05-01 09:27 | 25.05791 | 56.65997 | 34844 ft | 528 kts | 103° |
| 2026-05-01 09:28 | 25.04405 | 56.73946 | 34811 ft | 527 kts | 104° |
| 2026-05-01 09:28 | 25.02910 | 56.81859 | 34801 ft | 528 kts | 104° |
| 2026-05-01 09:29 | 25.00602 | 56.93770 | 34778 ft | 530 kts | 104° |
| 2026-05-01 09:30 | 24.98337 | 57.05692 | 34815 ft | 529 kts | 104° |
| 2026-05-01 09:30 | 24.96005 | 57.17590 | 34833 ft | 529 kts | 104° |
| 2026-05-01 09:31 | 24.94483 | 57.25484 | 34803 ft | 530 kts | 104° |
| 2026-05-01 09:32 | 24.92159 | 57.37404 | 34802 ft | 528 kts | 104° |
| 2026-05-01 09:32 | 24.89841 | 57.49216 | 34809 ft | 526 kts | 104° |
| 2026-05-01 09:33 | 24.88304 | 57.57094 | 34811 ft | 525 kts | 104° |
| 2026-05-01 09:34 | 24.85983 | 57.68890 | 34805 ft | 526 kts | 104° |
| 2026-05-01 09:34 | 24.83650 | 57.80650 | 34814 ft | 525 kts | 104° |
| 2026-05-01 09:35 | 24.81197 | 57.92384 | 34806 ft | 523 kts | 104° |
| 2026-05-01 09:36 | 24.79645 | 58.00222 | 34792 ft | 525 kts | 104° |
| 2026-05-01 09:36 | 24.78098 | 58.08065 | 34798 ft | 524 kts | 104° |
| 2026-05-01 09:37 | 24.76514 | 58.15849 | 34784 ft | 524 kts | 105° |
| 2026-05-01 09:37 | 24.74057 | 58.27579 | 34817 ft | 525 kts | 104° |
| 2026-05-01 09:38 | 24.71597 | 58.39264 | 34808 ft | 524 kts | 105° |
| 2026-05-01 09:39 | 24.69211 | 58.51026 | 34807 ft | 523 kts | 104° |
| 2026-05-01 09:39 | 24.67586 | 58.58816 | 34832 ft | 523 kts | 105° |
| 2026-05-01 09:40 | 24.65399 | 58.69174 | 34813 ft | 522 kts | 104° |
| 2026-05-01 09:41 | 24.63780 | 58.76976 | 34808 ft | 523 kts | 105° |
| 2026-05-01 09:41 | 24.61329 | 58.88611 | 34813 ft | 521 kts | 105° |
| 2026-05-01 09:42 | 24.59679 | 58.96372 | 34814 ft | 521 kts | 105° |
| 2026-05-01 09:43 | 24.56441 | 59.11912 | 34820 ft | 520 kts | 105° |
| 2026-05-01 09:43 | 24.54805 | 59.19589 | 34832 ft | 519 kts | 105° |
| 2026-05-01 09:44 | 24.52350 | 59.31214 | 34819 ft | 520 kts | 104° |
| 2026-05-01 09:45 | 24.50731 | 59.38975 | 34831 ft | 522 kts | 106° |
| 2026-05-01 09:45 | 24.48181 | 59.50529 | 34834 ft | 520 kts | 105° |
| 2026-05-01 09:46 | 24.46534 | 59.58277 | 34816 ft | 520 kts | 104° |
| 2026-05-01 09:46 | 24.44900 | 59.65991 | 34830 ft | 518 kts | 105° |
| 2026-05-01 09:47 | 24.43247 | 59.73676 | 34813 ft | 515 kts | 105° |
| 2026-05-01 09:47 | 24.41592 | 59.81281 | 34833 ft | 515 kts | 105° |
| 2026-05-01 09:48 | 24.39944 | 59.88921 | 34803 ft | 515 kts | 105° |
| 2026-05-01 09:48 | 24.38281 | 59.96579 | 34824 ft | 514 kts | 105° |
| 2026-05-01 09:49 | 24.36624 | 60.04214 | 34833 ft | 514 kts | 105° |
| 2026-05-01 09:49 | 24.34947 | 60.11864 | 34788 ft | 516 kts | 105° |
| 2026-05-01 09:50 | 24.33315 | 60.19501 | 34825 ft | 516 kts | 104° |
| 2026-05-01 09:50 | 24.31630 | 60.27158 | 34814 ft | 516 kts | 105° |
| 2026-05-01 09:51 | 24.29923 | 60.34787 | 34797 ft | 515 kts | 105° |
| 2026-05-01 09:51 | 24.28211 | 60.42417 | 34805 ft | 515 kts | 106° |
| 2026-05-01 09:52 | 24.26512 | 60.50029 | 34837 ft | 514 kts | 105° |
| 2026-05-01 09:52 | 24.24834 | 60.57609 | 34814 ft | 515 kts | 105° |
| 2026-05-01 09:53 | 24.23131 | 60.65280 | 34815 ft | 516 kts | 105° |
| 2026-05-01 09:53 | 24.21427 | 60.72917 | 34819 ft | 516 kts | 106° |
| 2026-05-01 09:54 | 24.19701 | 60.80549 | 34852 ft | 516 kts | 105° |
| 2026-05-01 09:54 | 24.18022 | 60.88165 | 34844 ft | 518 kts | 105° |
| 2026-05-01 09:55 | 24.16317 | 60.95820 | 34817 ft | 516 kts | 106° |
| 2026-05-01 09:55 | 24.14571 | 61.03464 | 34853 ft | 516 kts | 105° |
| 2026-05-01 09:56 | 24.12919 | 61.11082 | 34811 ft | 516 kts | 105° |
| 2026-05-01 09:56 | 24.11139 | 61.18700 | 34819 ft | 517 kts | 107° |
| 2026-05-01 09:57 | 24.09371 | 61.26335 | 34836 ft | 517 kts | 105° |
| 2026-05-01 09:57 | 24.08441 | 61.34148 | 34806 ft | 520 kts | 92° |
| 2026-05-01 09:58 | 24.08927 | 61.41979 | 34822 ft | 519 kts | 81° |
| 2026-05-01 09:58 | 24.10154 | 61.49788 | 34817 ft | 519 kts | 80° |
| 2026-05-01 09:59 | 24.11382 | 61.57571 | 34808 ft | 517 kts | 81° |
| 2026-05-01 09:59 | 24.12529 | 61.65340 | 34818 ft | 515 kts | 81° |
| 2026-05-01 10:00 | 24.13658 | 61.73100 | 34808 ft | 516 kts | 81° |
| 2026-05-01 10:00 | 24.14758 | 61.80817 | 34816 ft | 517 kts | 82° |
| 2026-05-01 10:01 | 24.15844 | 61.88608 | 34816 ft | 517 kts | 82° |
| 2026-05-01 10:01 | 24.16886 | 61.96413 | 34829 ft | 518 kts | 82° |
| 2026-05-01 10:02 | 24.17938 | 62.04244 | 34810 ft | 518 kts | 82° |
| 2026-05-01 10:02 | 24.18979 | 62.12059 | 34822 ft | 518 kts | 82° |
| 2026-05-01 10:03 | 24.20034 | 62.19828 | 34804 ft | 518 kts | 82° |
| 2026-05-01 10:03 | 24.21110 | 62.27631 | 34817 ft | 518 kts | 82° |
| 2026-05-01 10:04 | 24.22158 | 62.35452 | 34842 ft | 518 kts | 82° |
| 2026-05-01 10:04 | 24.23173 | 62.43235 | 34822 ft | 519 kts | 82° |
| 2026-05-01 10:05 | 24.24192 | 62.51083 | 34807 ft | 520 kts | 82° |
| 2026-05-01 10:05 | 24.25216 | 62.58930 | 34803 ft | 520 kts | 82° |
| 2026-05-01 10:06 | 24.26241 | 62.66730 | 34801 ft | 518 kts | 82° |
| 2026-05-01 10:06 | 24.27263 | 62.74551 | 34800 ft | 518 kts | 82° |
| 2026-05-01 10:07 | 24.28290 | 62.82382 | 34805 ft | 519 kts | 82° |
| 2026-05-01 10:07 | 24.29309 | 62.90236 | 34801 ft | 520 kts | 82° |
| 2026-05-01 10:08 | 24.30809 | 63.01973 | 34783 ft | 520 kts | 82° |
| 2026-05-01 10:09 | 24.31817 | 63.09825 | 34782 ft | 519 kts | 82° |
| 2026-05-01 10:09 | 24.32821 | 63.17695 | 34773 ft | 520 kts | 82° |
| 2026-05-01 10:10 | 24.33800 | 63.25503 | 34768 ft | 521 kts | 82° |
| 2026-05-01 10:10 | 24.35301 | 63.37307 | 34759 ft | 522 kts | 82° |
| 2026-05-01 10:11 | 24.36290 | 63.45215 | 34758 ft | 522 kts | 83° |
| 2026-05-01 10:11 | 24.37263 | 63.53088 | 34793 ft | 521 kts | 82° |
| 2026-05-01 10:12 | 24.38106 | 63.59635 | 34758 ft | 521 kts | 82° |
| 2026-05-01 10:13 | 24.39723 | 63.72760 | 34758 ft | 522 kts | 82° |
| 2026-05-01 10:13 | 24.40693 | 63.80674 | 34760 ft | 523 kts | 82° |
| 2026-05-01 10:14 | 24.42163 | 63.92505 | 34754 ft | 523 kts | 82° |
| 2026-05-01 10:14 | 24.43125 | 64.00419 | 34760 ft | 523 kts | 82° |
| 2026-05-01 10:15 | 24.44069 | 64.08335 | 34752 ft | 522 kts | 82° |
| 2026-05-01 10:15 | 24.45029 | 64.16236 | 34713 ft | 522 kts | 82° |
| 2026-05-01 10:16 | 24.45966 | 64.24091 | 34739 ft | 522 kts | 82° |
| 2026-05-01 10:17 | 24.47375 | 64.35954 | 34766 ft | 522 kts | 83° |
| 2026-05-01 10:17 | 24.48795 | 64.47818 | 34731 ft | 524 kts | 82° |
| 2026-05-01 10:18 | 24.50195 | 64.59720 | 34708 ft | 524 kts | 82° |
| 2026-05-01 10:19 | 24.51130 | 64.67655 | 34722 ft | 524 kts | 82° |
| 2026-05-01 10:19 | 24.52041 | 64.75541 | 34721 ft | 522 kts | 83° |
| 2026-05-01 10:20 | 24.53366 | 64.87380 | 34707 ft | 520 kts | 84° |
| 2026-05-01 10:20 | 24.53983 | 64.95313 | 34730 ft | 522 kts | 86° |
| 2026-05-01 10:21 | 24.54812 | 65.07253 | 34707 ft | 523 kts | 85° |
| 2026-05-01 10:22 | 24.55719 | 65.18970 | 34402 ft | 502 kts | 85° |
| 2026-05-01 10:22 | 24.56287 | 65.26510 | 33719 ft | 496 kts | 84° |
| 2026-05-01 10:23 | 24.56587 | 65.30284 | 33272 ft | 496 kts | 85° |
| 2026-05-01 10:23 | 24.57156 | 65.37791 | 32588 ft | 486 kts | 84° |
| 2026-05-01 10:23 | 24.57436 | 65.41479 | 32121 ft | 483 kts | 84° |
| 2026-05-01 10:24 | 24.57981 | 65.48800 | 31212 ft | 477 kts | 85° |
| 2026-05-01 10:24 | 24.58511 | 65.56022 | 30341 ft | 469 kts | 85° |
| 2026-05-01 10:25 | 24.59032 | 65.63041 | 29508 ft | 460 kts | 84° |
| 2026-05-01 10:25 | 24.59517 | 65.70023 | 28579 ft | 454 kts | 85° |
| 2026-05-01 10:26 | 24.59769 | 65.73482 | 28122 ft | 451 kts | 84° |
| 2026-05-01 10:26 | 24.60028 | 65.76910 | 27653 ft | 449 kts | 84° |
| 2026-05-01 10:26 | 24.60551 | 65.83713 | 26733 ft | 444 kts | 84° |
| 2026-05-01 10:27 | 24.61037 | 65.90315 | 26535 ft | 428 kts | 84° |
| 2026-05-01 10:27 | 24.61510 | 65.96962 | 26504 ft | 443 kts | 85° |
| 2026-05-01 10:28 | 24.61748 | 66.00342 | 26492 ft | 444 kts | 84° |
| 2026-05-01 10:28 | 24.62234 | 66.07093 | 26487 ft | 442 kts | 84° |
| 2026-05-01 10:28 | 24.62486 | 66.10472 | 26476 ft | 443 kts | 84° |
| 2026-05-01 10:29 | 24.62953 | 66.17182 | 26455 ft | 442 kts | 84° |
| 2026-05-01 10:29 | 24.63184 | 66.20556 | 26458 ft | 441 kts | 85° |
| 2026-05-01 10:30 | 24.63651 | 66.27279 | 26466 ft | 441 kts | 84° |
| 2026-05-01 10:30 | 24.64114 | 66.33985 | 26477 ft | 439 kts | 85° |
| 2026-05-01 10:31 | 24.64500 | 66.39555 | 26485 ft | 439 kts | 84° |
| 2026-05-01 10:31 | 24.64982 | 66.46235 | 26338 ft | 437 kts | 84° |
| 2026-05-01 10:32 | 24.65429 | 66.52862 | 25458 ft | 432 kts | 84° |
| 2026-05-01 10:32 | 24.65651 | 66.56157 | 25022 ft | 430 kts | 84° |
| 2026-05-01 10:32 | 24.66088 | 66.62646 | 24193 ft | 422 kts | 84° |
| 2026-05-01 10:33 | 24.66513 | 66.69028 | 23348 ft | 415 kts | 84° |
| 2026-05-01 10:33 | 24.66941 | 66.75294 | 22442 ft | 411 kts | 84° |
| 2026-05-01 10:34 | 24.67140 | 66.78417 | 21992 ft | 408 kts | 84° |
| 2026-05-01 10:34 | 24.67347 | 66.81521 | 21564 ft | 407 kts | 84° |
| 2026-05-01 10:34 | 24.67565 | 66.84617 | 21195 ft | 404 kts | 84° |
| 2026-05-01 10:35 | 24.67944 | 66.90632 | 19860 ft | 389 kts | 84° |
| 2026-05-01 10:35 | 24.68136 | 66.93600 | 18946 ft | 388 kts | 84° |
| 2026-05-01 10:35 | 24.68322 | 66.96543 | 18086 ft | 384 kts | 84° |
| 2026-05-01 10:35 | 24.68521 | 66.99452 | 17276 ft | 379 kts | 84° |
| 2026-05-01 10:36 | 24.69086 | 67.05049 | 16154 ft | 353 kts | 69° |
| 2026-05-01 10:36 | 24.70122 | 67.07384 | 15662 ft | 336 kts | 56° |
| 2026-05-01 10:36 | 24.71321 | 67.09552 | 15149 ft | 327 kts | 55° |
| 2026-05-01 10:37 | 24.72500 | 67.11664 | 14561 ft | 321 kts | 55° |
| 2026-05-01 10:37 | 24.74800 | 67.15826 | 13288 ft | 314 kts | 56° |
| 2026-05-01 10:37 | 24.75917 | 67.17879 | 12665 ft | 311 kts | 57° |
| 2026-05-01 10:38 | 24.77018 | 67.19896 | 11976 ft | 306 kts | 57° |
| 2026-05-01 10:38 | 24.78104 | 67.21897 | 11245 ft | 302 kts | 57° |
| 2026-05-01 10:38 | 24.79179 | 67.23877 | 10463 ft | 300 kts | 57° |
| 2026-05-01 10:38 | 24.80245 | 67.25849 | 9687 ft | 297 kts | 57° |
| 2026-05-01 10:39 | 24.81295 | 67.27803 | 8942 ft | 296 kts | 56° |
| 2026-05-01 10:39 | 24.82333 | 67.29737 | 8244 ft | 291 kts | 57° |
| 2026-05-01 10:39 | 24.83331 | 67.31644 | 7505 ft | 289 kts | 57° |
| 2026-05-01 10:39 | 24.84345 | 67.33550 | 6813 ft | 287 kts | 57° |
| 2026-05-01 10:40 | 24.85370 | 67.35428 | 6088 ft | 284 kts | 56° |
| 2026-05-01 10:40 | 24.86402 | 67.37274 | 5440 ft | 279 kts | 51° |
| 2026-05-01 10:40 | 24.87788 | 67.38683 | 4767 ft | 265 kts | 23° |
| 2026-05-01 10:40 | 24.89477 | 67.39218 | 4406 ft | 241 kts | 1° |
| 2026-05-01 10:41 | 24.91038 | 67.39154 | 4152 ft | 216 kts | 342° |
| 2026-05-01 10:41 | 24.92411 | 67.38793 | 4026 ft | 195 kts | 340° |
| 2026-05-01 10:41 | 24.94565 | 67.37132 | 3633 ft | 184 kts | 298° |
| 2026-05-01 10:42 | 24.94925 | 67.35820 | 3356 ft | 178 kts | 266° |
| 2026-05-01 10:42 | 24.94807 | 67.34465 | 3166 ft | 182 kts | 264° |
| 2026-05-01 10:42 | 24.94626 | 67.33083 | 2947 ft | 182 kts | 262° |
| 2026-05-01 10:42 | 24.94417 | 67.31702 | 2695 ft | 182 kts | 259° |
| 2026-05-01 10:43 | 24.94134 | 67.30381 | 2474 ft | 172 kts | 257° |
| 2026-05-01 10:43 | 24.93820 | 67.29108 | 2242 ft | 172 kts | 254° |
| 2026-05-01 10:43 | 24.93514 | 67.27896 | 1993 ft | 156 kts | 253° |
| 2026-05-01 10:43 | 24.93235 | 67.26823 | 1816 ft | 136 kts | 253° |
| 2026-05-01 10:44 | 24.93003 | 67.25840 | 1636 ft | 133 kts | 251° |
| 2026-05-01 10:44 | 24.92751 | 67.24838 | 1472 ft | 139 kts | 252° |
| 2026-05-01 10:44 | 24.92479 | 67.23797 | 1291 ft | 144 kts | 251° |
| 2026-05-01 10:44 | 24.92207 | 67.22742 | 1072 ft | 140 kts | 251° |
| 2026-05-01 10:45 | 24.91950 | 67.21719 | 901 ft | 139 kts | 252° |
| 2026-05-01 10:45 | 24.91686 | 67.20709 | 721 ft | 139 kts | 252° |
| 2026-05-01 10:45 | 24.91436 | 67.19678 | 536 ft | 139 kts | 252° |
| 2026-05-01 10:45 | 24.91172 | 67.18652 | 357 ft | 140 kts | 252° |
| 2026-05-01 10:46 | 24.90911 | 67.17617 | 156 ft | 141 kts | 252° |
| 2026-05-01 10:46 | 24.90657 | 67.16621 | 110 ft | 120 kts | 254° |
| 2026-05-01 10:46 | 24.90473 | 67.15900 | 110 ft | 75 kts | 254° |
| 2026-05-01 10:46 | 24.90359 | 67.15441 | 110 ft | 57 kts | 255° |
| 2026-05-01 10:47 | 24.90279 | 67.15124 | 109 ft | 21 kts | 254° |
| 2026-05-01 10:47 | 24.90223 | 67.15055 | 109 ft | 13 kts | 144° |
| 2026-05-01 10:47 | 24.90182 | 67.15144 | 108 ft | 14 kts | 102° |
| 2026-05-01 10:47 | 24.90156 | 67.15248 | 107 ft | 15 kts | 105° |
| 2026-05-01 10:48 | 24.90140 | 67.15358 | 107 ft | 15 kts | 83° |
| 2026-05-01 10:48 | 24.90165 | 67.15467 | 108 ft | 15 kts | 75° |